sensor_id;sensor_type;location;lat;lon;timestamp;temperature;humidity
55828;DHT22;41758;51.992;5.890;2023-11-22T00:02:17;9.60;70.50
55828;DHT22;41758;51.992;5.890;2023-11-22T00:04:43;9.60;70.60
55828;DHT22;41758;51.992;5.890;2023-11-22T00:07:09;9.60;70.60
55828;DHT22;41758;51.992;5.890;2023-11-22T00:09:35;9.60;70.60
55828;DHT22;41758;51.992;5.890;2023-11-22T00:12:01;9.60;70.60
55828;DHT22;41758;51.992;5.890;2023-11-22T00:14:26;9.60;70.60
55828;DHT22;41758;51.992;5.890;2023-11-22T00:16:52;9.60;70.60
55828;DHT22;41758;51.992;5.890;2023-11-22T00:19:18;9.60;70.60
55828;DHT22;41758;51.992;5.890;2023-11-22T00:21:48;9.60;70.60
55828;DHT22;41758;51.992;5.890;2023-11-22T00:24:13;9.60;70.70
55828;DHT22;41758;51.992;5.890;2023-11-22T00:26:39;9.60;70.60
55828;DHT22;41758;51.992;5.890;2023-11-22T00:29:05;9.70;70.60
55828;DHT22;41758;51.992;5.890;2023-11-22T00:31:31;9.60;70.70
55828;DHT22;41758;51.992;5.890;2023-11-22T00:33:57;9.60;70.60
55828;DHT22;41758;51.992;5.890;2023-11-22T00:36:23;9.60;70.60
55828;DHT22;41758;51.992;5.890;2023-11-22T00:38:48;9.60;70.60
55828;DHT22;41758;51.992;5.890;2023-11-22T00:41:14;9.60;70.60
55828;DHT22;41758;51.992;5.890;2023-11-22T00:43:42;9.60;70.60
55828;DHT22;41758;51.992;5.890;2023-11-22T00:46:08;9.60;70.60
55828;DHT22;41758;51.992;5.890;2023-11-22T00:48:34;9.60;70.50
55828;DHT22;41758;51.992;5.890;2023-11-22T00:50:59;9.60;70.50
55828;DHT22;41758;51.992;5.890;2023-11-22T00:53:25;9.60;70.50
55828;DHT22;41758;51.992;5.890;2023-11-22T00:55:51;9.50;70.40
55828;DHT22;41758;51.992;5.890;2023-11-22T00:58:16;9.60;70.40
55828;DHT22;41758;51.992;5.890;2023-11-22T01:00:42;9.60;70.40
55828;DHT22;41758;51.992;5.890;2023-11-22T01:03:08;9.50;70.40
55828;DHT22;41758;51.992;5.890;2023-11-22T01:05:37;9.50;70.40
55828;DHT22;41758;51.992;5.890;2023-11-22T01:08:03;9.50;70.30
55828;DHT22;41758;51.992;5.890;2023-11-22T01:10:29;9.50;70.30
55828;DHT22;41758;51.992;5.890;2023-11-22T01:12:55;9.50;70.30
55828;DHT22;41758;51.992;5.890;2023-11-22T01:15:22;9.50;70.30
55828;DHT22;41758;51.992;5.890;2023-11-22T01:17:48;9.40;70.30
55828;DHT22;41758;51.992;5.890;2023-11-22T01:20:14;9.40;70.30
55828;DHT22;41758;51.992;5.890;2023-11-22T01:22:41;9.40;70.30
55828;DHT22;41758;51.992;5.890;2023-11-22T01:25:08;9.40;70.30
55828;DHT22;41758;51.992;5.890;2023-11-22T01:27:33;9.40;70.30
55828;DHT22;41758;51.992;5.890;2023-11-22T01:29:59;9.30;70.30
55828;DHT22;41758;51.992;5.890;2023-11-22T01:32:25;9.40;70.30
55828;DHT22;41758;51.992;5.890;2023-11-22T01:34:50;9.30;70.30
55828;DHT22;41758;51.992;5.890;2023-11-22T01:37:16;9.30;70.30
55828;DHT22;41758;51.992;5.890;2023-11-22T01:39:42;9.30;70.30
55828;DHT22;41758;51.992;5.890;2023-11-22T01:42:08;9.30;70.30
55828;DHT22;41758;51.992;5.890;2023-11-22T01:44:34;9.30;70.20
55828;DHT22;41758;51.992;5.890;2023-11-22T01:47:00;9.30;70.20
55828;DHT22;41758;51.992;5.890;2023-11-22T01:49:27;9.30;70.10
55828;DHT22;41758;51.992;5.890;2023-11-22T01:51:53;9.30;70.10
55828;DHT22;41758;51.992;5.890;2023-11-22T01:54:20;9.30;70.20
55828;DHT22;41758;51.992;5.890;2023-11-22T01:56:48;9.30;70.20
55828;DHT22;41758;51.992;5.890;2023-11-22T01:59:15;9.30;70.20
55828;DHT22;41758;51.992;5.890;2023-11-22T02:01:42;9.30;70.10
55828;DHT22;41758;51.992;5.890;2023-11-22T02:04:08;9.30;70.10
55828;DHT22;41758;51.992;5.890;2023-11-22T02:06:35;9.20;70.10
55828;DHT22;41758;51.992;5.890;2023-11-22T02:09:01;9.20;70.10
55828;DHT22;41758;51.992;5.890;2023-11-22T02:11:26;9.20;70.10
55828;DHT22;41758;51.992;5.890;2023-11-22T02:13:52;9.20;70.20
55828;DHT22;41758;51.992;5.890;2023-11-22T02:16:19;9.20;70.10
55828;DHT22;41758;51.992;5.890;2023-11-22T02:18:48;9.10;70.10
55828;DHT22;41758;51.992;5.890;2023-11-22T02:21:17;9.10;70.10
55828;DHT22;41758;51.992;5.890;2023-11-22T02:23:43;9.10;70.10
55828;DHT22;41758;51.992;5.890;2023-11-22T02:26:09;9.10;70.00
55828;DHT22;41758;51.992;5.890;2023-11-22T02:28:34;9.10;70.00
55828;DHT22;41758;51.992;5.890;2023-11-22T02:31:00;9.10;70.00
55828;DHT22;41758;51.992;5.890;2023-11-22T02:33:26;9.00;70.00
55828;DHT22;41758;51.992;5.890;2023-11-22T02:35:52;9.00;70.00
55828;DHT22;41758;51.992;5.890;2023-11-22T02:38:17;9.00;70.00
55828;DHT22;41758;51.992;5.890;2023-11-22T02:40:43;9.00;70.00
55828;DHT22;41758;51.992;5.890;2023-11-22T02:43:09;9.00;70.00
55828;DHT22;41758;51.992;5.890;2023-11-22T02:45:36;8.90;70.00
55828;DHT22;41758;51.992;5.890;2023-11-22T02:48:02;9.00;70.00
55828;DHT22;41758;51.992;5.890;2023-11-22T02:50:29;8.90;70.00
55828;DHT22;41758;51.992;5.890;2023-11-22T02:52:58;8.90;70.00
55828;DHT22;41758;51.992;5.890;2023-11-22T02:55:25;8.90;70.00
55828;DHT22;41758;51.992;5.890;2023-11-22T02:57:51;8.90;70.00
55828;DHT22;41758;51.992;5.890;2023-11-22T03:00:17;8.90;69.90
55828;DHT22;41758;51.992;5.890;2023-11-22T03:02:45;8.80;69.90
55828;DHT22;41758;51.992;5.890;2023-11-22T03:05:12;8.80;69.90
55828;DHT22;41758;51.992;5.890;2023-11-22T03:07:40;8.80;69.90
55828;DHT22;41758;51.992;5.890;2023-11-22T03:10:06;8.80;69.90
55828;DHT22;41758;51.992;5.890;2023-11-22T03:12:33;8.80;69.90
55828;DHT22;41758;51.992;5.890;2023-11-22T03:14:59;8.80;69.90
55828;DHT22;41758;51.992;5.890;2023-11-22T03:17:26;8.80;69.90
55828;DHT22;41758;51.992;5.890;2023-11-22T03:19:55;8.70;69.90
55828;DHT22;41758;51.992;5.890;2023-11-22T03:22:28;8.70;69.90
55828;DHT22;41758;51.992;5.890;2023-11-22T03:25:03;8.70;69.90
55828;DHT22;41758;51.992;5.890;2023-11-22T03:27:30;8.70;69.80
55828;DHT22;41758;51.992;5.890;2023-11-22T03:29:55;8.60;69.90
55828;DHT22;41758;51.992;5.890;2023-11-22T03:32:22;8.60;69.90
55828;DHT22;41758;51.992;5.890;2023-11-22T03:34:47;8.60;69.90
55828;DHT22;41758;51.992;5.890;2023-11-22T03:37:13;8.60;69.90
55828;DHT22;41758;51.992;5.890;2023-11-22T03:39:39;8.60;69.90
55828;DHT22;41758;51.992;5.890;2023-11-22T03:42:07;8.50;69.90
55828;DHT22;41758;51.992;5.890;2023-11-22T03:44:33;8.50;69.90
55828;DHT22;41758;51.992;5.890;2023-11-22T03:46:58;8.50;69.90
55828;DHT22;41758;51.992;5.890;2023-11-22T03:49:24;8.50;69.80
55828;DHT22;41758;51.992;5.890;2023-11-22T03:51:50;8.50;69.80
55828;DHT22;41758;51.992;5.890;2023-11-22T03:54:16;8.40;69.80
55828;DHT22;41758;51.992;5.890;2023-11-22T03:56:41;8.40;69.90
55828;DHT22;41758;51.992;5.890;2023-11-22T03:59:07;8.40;69.90
55828;DHT22;41758;51.992;5.890;2023-11-22T04:01:33;8.40;69.80
55828;DHT22;41758;51.992;5.890;2023-11-22T04:03:58;8.40;69.80
55828;DHT22;41758;51.992;5.890;2023-11-22T04:06:24;8.40;69.70
55828;DHT22;41758;51.992;5.890;2023-11-22T04:08:49;8.30;69.70
55828;DHT22;41758;51.992;5.890;2023-11-22T04:11:16;8.30;69.70
55828;DHT22;41758;51.992;5.890;2023-11-22T04:13:43;8.30;69.70
55828;DHT22;41758;51.992;5.890;2023-11-22T04:16:10;8.30;69.70
55828;DHT22;41758;51.992;5.890;2023-11-22T04:18:41;8.30;69.70
55828;DHT22;41758;51.992;5.890;2023-11-22T04:21:07;8.30;69.70
55828;DHT22;41758;51.992;5.890;2023-11-22T04:23:34;8.30;69.60
55828;DHT22;41758;51.992;5.890;2023-11-22T04:26:00;8.20;69.60
55828;DHT22;41758;51.992;5.890;2023-11-22T04:28:27;8.20;69.70
55828;DHT22;41758;51.992;5.890;2023-11-22T04:30:55;8.20;69.70
55828;DHT22;41758;51.992;5.890;2023-11-22T04:33:20;8.20;69.70
55828;DHT22;41758;51.992;5.890;2023-11-22T04:35:48;8.10;69.60
55828;DHT22;41758;51.992;5.890;2023-11-22T04:38:14;8.10;69.70
55828;DHT22;41758;51.992;5.890;2023-11-22T04:40:40;8.10;69.60
55828;DHT22;41758;51.992;5.890;2023-11-22T04:43:08;8.10;69.60
55828;DHT22;41758;51.992;5.890;2023-11-22T04:45:33;8.00;69.60
55828;DHT22;41758;51.992;5.890;2023-11-22T04:48:00;8.00;69.70
55828;DHT22;41758;51.992;5.890;2023-11-22T04:50:26;8.00;69.60
55828;DHT22;41758;51.992;5.890;2023-11-22T04:52:52;8.00;69.60
55828;DHT22;41758;51.992;5.890;2023-11-22T04:55:17;8.00;69.70
55828;DHT22;41758;51.992;5.890;2023-11-22T04:57:45;7.90;69.60
55828;DHT22;41758;51.992;5.890;2023-11-22T05:00:11;7.90;69.50
55828;DHT22;41758;51.992;5.890;2023-11-22T05:02:38;7.90;69.50
55828;DHT22;41758;51.992;5.890;2023-11-22T05:05:06;7.90;69.60
55828;DHT22;41758;51.992;5.890;2023-11-22T05:07:32;7.80;69.60
55828;DHT22;41758;51.992;5.890;2023-11-22T05:09:57;7.80;69.50
55828;DHT22;41758;51.992;5.890;2023-11-22T05:12:23;7.80;69.50
55828;DHT22;41758;51.992;5.890;2023-11-22T05:14:49;7.80;69.50
55828;DHT22;41758;51.992;5.890;2023-11-22T05:17:15;7.80;69.50
55828;DHT22;41758;51.992;5.890;2023-11-22T05:19:41;7.80;69.50
55828;DHT22;41758;51.992;5.890;2023-11-22T05:22:06;7.70;69.40
55828;DHT22;41758;51.992;5.890;2023-11-22T05:24:33;7.60;69.50
55828;DHT22;41758;51.992;5.890;2023-11-22T05:27:00;7.60;69.50
55828;DHT22;41758;51.992;5.890;2023-11-22T05:29:26;7.60;69.60
55828;DHT22;41758;51.992;5.890;2023-11-22T05:31:52;7.60;69.60
55828;DHT22;41758;51.992;5.890;2023-11-22T05:34:18;7.60;69.60
55828;DHT22;41758;51.992;5.890;2023-11-22T05:36:44;7.60;69.60
55828;DHT22;41758;51.992;5.890;2023-11-22T05:39:09;7.60;69.50
55828;DHT22;41758;51.992;5.890;2023-11-22T05:41:35;7.60;69.60
55828;DHT22;41758;51.992;5.890;2023-11-22T05:44:01;7.60;69.60
55828;DHT22;41758;51.992;5.890;2023-11-22T05:46:28;7.50;69.70
55828;DHT22;41758;51.992;5.890;2023-11-22T05:48:54;7.60;69.70
55828;DHT22;41758;51.992;5.890;2023-11-22T05:51:20;7.60;69.80
55828;DHT22;41758;51.992;5.890;2023-11-22T05:53:46;7.50;69.80
55828;DHT22;41758;51.992;5.890;2023-11-22T05:56:12;7.60;69.90
55828;DHT22;41758;51.992;5.890;2023-11-22T05:58:39;7.60;69.90
55828;DHT22;41758;51.992;5.890;2023-11-22T06:01:05;7.60;70.00
55828;DHT22;41758;51.992;5.890;2023-11-22T06:03:31;7.60;70.00
55828;DHT22;41758;51.992;5.890;2023-11-22T06:05:57;7.70;70.00
55828;DHT22;41758;51.992;5.890;2023-11-22T06:08:23;7.70;70.10
55828;DHT22;41758;51.992;5.890;2023-11-22T06:10:49;7.70;70.10
55828;DHT22;41758;51.992;5.890;2023-11-22T06:13:14;7.70;70.00
55828;DHT22;41758;51.992;5.890;2023-11-22T06:15:40;7.80;70.10
55828;DHT22;41758;51.992;5.890;2023-11-22T06:18:07;7.80;70.10
55828;DHT22;41758;51.992;5.890;2023-11-22T06:20:32;7.80;70.00
55828;DHT22;41758;51.992;5.890;2023-11-22T06:22:58;7.90;70.10
55828;DHT22;41758;51.992;5.890;2023-11-22T06:25:24;7.90;70.00
55828;DHT22;41758;51.992;5.890;2023-11-22T06:27:50;7.90;70.00
55828;DHT22;41758;51.992;5.890;2023-11-22T06:30:15;7.90;69.90
55828;DHT22;41758;51.992;5.890;2023-11-22T06:32:41;7.90;69.80
55828;DHT22;41758;51.992;5.890;2023-11-22T06:35:09;7.90;69.80
55828;DHT22;41758;51.992;5.890;2023-11-22T06:37:35;7.90;69.80
55828;DHT22;41758;51.992;5.890;2023-11-22T06:40:01;7.90;69.80
55828;DHT22;41758;51.992;5.890;2023-11-22T06:42:27;7.90;69.80
55828;DHT22;41758;51.992;5.890;2023-11-22T06:44:53;7.90;69.80
55828;DHT22;41758;51.992;5.890;2023-11-22T06:47:22;7.90;69.90
55828;DHT22;41758;51.992;5.890;2023-11-22T06:49:47;7.90;69.90
55828;DHT22;41758;51.992;5.890;2023-11-22T06:52:13;7.90;69.90
55828;DHT22;41758;51.992;5.890;2023-11-22T06:54:39;7.90;69.90
55828;DHT22;41758;51.992;5.890;2023-11-22T06:57:04;8.00;69.90
55828;DHT22;41758;51.992;5.890;2023-11-22T06:59:30;7.90;69.90
55828;DHT22;41758;51.992;5.890;2023-11-22T07:01:56;8.00;69.90
55828;DHT22;41758;51.992;5.890;2023-11-22T07:04:22;8.00;69.90
55828;DHT22;41758;51.992;5.890;2023-11-22T07:06:48;8.00;69.90
55828;DHT22;41758;51.992;5.890;2023-11-22T07:09:14;8.00;69.90
55828;DHT22;41758;51.992;5.890;2023-11-22T07:11:40;8.00;69.90
55828;DHT22;41758;51.992;5.890;2023-11-22T07:14:06;8.10;69.90
55828;DHT22;41758;51.992;5.890;2023-11-22T07:16:33;8.10;69.90
55828;DHT22;41758;51.992;5.890;2023-11-22T07:18:59;8.10;70.00
55828;DHT22;41758;51.992;5.890;2023-11-22T07:21:31;8.10;69.90
55828;DHT22;41758;51.992;5.890;2023-11-22T07:23:56;8.10;69.90
55828;DHT22;41758;51.992;5.890;2023-11-22T07:26:24;8.10;70.00
55828;DHT22;41758;51.992;5.890;2023-11-22T07:28:52;8.20;70.10
55828;DHT22;41758;51.992;5.890;2023-11-22T07:31:18;8.20;70.20
55828;DHT22;41758;51.992;5.890;2023-11-22T07:33:45;8.30;70.10
55828;DHT22;41758;51.992;5.890;2023-11-22T07:36:12;8.30;70.20
55828;DHT22;41758;51.992;5.890;2023-11-22T07:38:41;8.30;70.30
55828;DHT22;41758;51.992;5.890;2023-11-22T07:41:06;8.30;70.30
55828;DHT22;41758;51.992;5.890;2023-11-22T07:43:36;8.30;70.40
55828;DHT22;41758;51.992;5.890;2023-11-22T07:46:08;8.40;70.50
55828;DHT22;41758;51.992;5.890;2023-11-22T07:48:38;8.40;70.60
55828;DHT22;41758;51.992;5.890;2023-11-22T07:51:06;8.50;70.60
55828;DHT22;41758;51.992;5.890;2023-11-22T07:53:33;8.50;70.70
55828;DHT22;41758;51.992;5.890;2023-11-22T07:56:03;8.60;70.70
55828;DHT22;41758;51.992;5.890;2023-11-22T07:58:34;8.60;70.80
55828;DHT22;41758;51.992;5.890;2023-11-22T08:00:59;8.70;70.80
55828;DHT22;41758;51.992;5.890;2023-11-22T08:03:26;8.80;70.80
55828;DHT22;41758;51.992;5.890;2023-11-22T08:05:52;8.80;70.90
55828;DHT22;41758;51.992;5.890;2023-11-22T08:08:24;8.90;70.90
55828;DHT22;41758;51.992;5.890;2023-11-22T08:10:50;8.90;70.90
55828;DHT22;41758;51.992;5.890;2023-11-22T08:13:20;9.00;70.90
55828;DHT22;41758;51.992;5.890;2023-11-22T08:15:48;9.10;71.00
55828;DHT22;41758;51.992;5.890;2023-11-22T08:18:14;9.10;71.00
55828;DHT22;41758;51.992;5.890;2023-11-22T08:20:45;9.20;71.00
55828;DHT22;41758;51.992;5.890;2023-11-22T08:23:10;9.20;71.00
55828;DHT22;41758;51.992;5.890;2023-11-22T08:25:38;9.30;71.00
55828;DHT22;41758;51.992;5.890;2023-11-22T08:28:04;9.30;71.00
55828;DHT22;41758;51.992;5.890;2023-11-22T08:30:33;9.40;70.90
55828;DHT22;41758;51.992;5.890;2023-11-22T08:33:01;9.40;70.90
55828;DHT22;41758;51.992;5.890;2023-11-22T08:35:27;9.50;70.80
55828;DHT22;41758;51.992;5.890;2023-11-22T08:37:53;9.50;70.80
55828;DHT22;41758;51.992;5.890;2023-11-22T08:40:19;9.60;70.90
55828;DHT22;41758;51.992;5.890;2023-11-22T08:42:49;9.60;70.90
55828;DHT22;41758;51.992;5.890;2023-11-22T08:45:15;9.70;71.00
55828;DHT22;41758;51.992;5.890;2023-11-22T08:47:41;9.80;71.00
55828;DHT22;41758;51.992;5.890;2023-11-22T08:50:08;9.80;70.90
55828;DHT22;41758;51.992;5.890;2023-11-22T08:52:39;9.90;70.90
55828;DHT22;41758;51.992;5.890;2023-11-22T08:55:07;9.90;70.80
55828;DHT22;41758;51.992;5.890;2023-11-22T08:57:37;9.90;70.80
55828;DHT22;41758;51.992;5.890;2023-11-22T09:00:04;9.90;70.80
55828;DHT22;41758;51.992;5.890;2023-11-22T09:02:34;10.00;70.90
55828;DHT22;41758;51.992;5.890;2023-11-22T09:05:02;10.10;70.90
55828;DHT22;41758;51.992;5.890;2023-11-22T09:07:32;10.10;70.80
55828;DHT22;41758;51.992;5.890;2023-11-22T09:09:58;10.10;70.80
55828;DHT22;41758;51.992;5.890;2023-11-22T09:12:24;10.20;70.80
55828;DHT22;41758;51.992;5.890;2023-11-22T09:14:52;10.20;70.80
55828;DHT22;41758;51.992;5.890;2023-11-22T09:17:19;10.20;70.80
55828;DHT22;41758;51.992;5.890;2023-11-22T09:19:46;10.30;70.80
55828;DHT22;41758;51.992;5.890;2023-11-22T09:22:11;10.30;70.80
55828;DHT22;41758;51.992;5.890;2023-11-22T09:24:38;10.30;70.80
55828;DHT22;41758;51.992;5.890;2023-11-22T09:27:04;10.40;70.80
55828;DHT22;41758;51.992;5.890;2023-11-22T09:29:35;10.40;70.80
55828;DHT22;41758;51.992;5.890;2023-11-22T09:32:01;10.40;70.80
55828;DHT22;41758;51.992;5.890;2023-11-22T09:34:28;10.50;70.60
55828;DHT22;41758;51.992;5.890;2023-11-22T09:36:53;10.40;70.40
55828;DHT22;41758;51.992;5.890;2023-11-22T09:39:19;10.40;70.30
55828;DHT22;41758;51.992;5.890;2023-11-22T09:41:47;10.40;70.40
55828;DHT22;41758;51.992;5.890;2023-11-22T09:44:14;10.40;70.70
55828;DHT22;41758;51.992;5.890;2023-11-22T09:46:41;10.50;70.80
55828;DHT22;41758;51.992;5.890;2023-11-22T09:49:08;10.50;70.80
55828;DHT22;41758;51.992;5.890;2023-11-22T09:51:37;10.60;70.90
55828;DHT22;41758;51.992;5.890;2023-11-22T09:54:08;10.60;71.10
55828;DHT22;41758;51.992;5.890;2023-11-22T09:56:37;10.70;71.00
55828;DHT22;41758;51.992;5.890;2023-11-22T09:59:04;10.80;71.00
55828;DHT22;41758;51.992;5.890;2023-11-22T10:01:33;10.80;71.10
55828;DHT22;41758;51.992;5.890;2023-11-22T10:04:02;10.90;71.10
55828;DHT22;41758;51.992;5.890;2023-11-22T10:06:34;10.90;71.00
55828;DHT22;41758;51.992;5.890;2023-11-22T10:09:03;10.90;70.80
55828;DHT22;41758;51.992;5.890;2023-11-22T10:11:35;10.90;70.50
55828;DHT22;41758;51.992;5.890;2023-11-22T10:14:09;10.80;70.40
55828;DHT22;41758;51.992;5.890;2023-11-22T10:16:35;10.80;70.70
55828;DHT22;41758;51.992;5.890;2023-11-22T10:19:01;10.90;70.80
55828;DHT22;41758;51.992;5.890;2023-11-22T10:21:28;10.90;70.90
55828;DHT22;41758;51.992;5.890;2023-11-22T10:24:04;10.90;70.80
55828;DHT22;41758;51.992;5.890;2023-11-22T10:26:35;10.90;70.70
55828;DHT22;41758;51.992;5.890;2023-11-22T10:29:01;10.90;70.70
55828;DHT22;41758;51.992;5.890;2023-11-22T10:31:28;10.90;70.80
55828;DHT22;41758;51.992;5.890;2023-11-22T10:33:54;11.00;70.90
55828;DHT22;41758;51.992;5.890;2023-11-22T10:36:21;11.00;71.00
55828;DHT22;41758;51.992;5.890;2023-11-22T10:38:48;11.00;70.90
55828;DHT22;41758;51.992;5.890;2023-11-22T10:41:14;11.00;70.90
55828;DHT22;41758;51.992;5.890;2023-11-22T10:43:40;11.10;70.90
55828;DHT22;41758;51.992;5.890;2023-11-22T10:46:08;11.10;70.80
55828;DHT22;41758;51.992;5.890;2023-11-22T10:48:36;11.10;70.90
55828;DHT22;41758;51.992;5.890;2023-11-22T10:51:03;11.10;71.00
55828;DHT22;41758;51.992;5.890;2023-11-22T10:53:44;11.20;71.10
55828;DHT22;41758;51.992;5.890;2023-11-22T10:56:15;11.20;71.20
55828;DHT22;41758;51.992;5.890;2023-11-22T10:58:55;11.30;71.30
55828;DHT22;41758;51.992;5.890;2023-11-22T11:01:25;11.30;71.20
55828;DHT22;41758;51.992;5.890;2023-11-22T11:06:26;11.40;71.40
55828;DHT22;41758;51.992;5.890;2023-11-22T11:09:03;11.50;71.30
55828;DHT22;41758;51.992;5.890;2023-11-22T11:11:40;11.50;71.20
55828;DHT22;41758;51.992;5.890;2023-11-22T11:14:08;11.40;70.90
55828;DHT22;41758;51.992;5.890;2023-11-22T11:16:38;11.50;71.00
55828;DHT22;41758;51.992;5.890;2023-11-22T11:19:07;11.50;71.10
55828;DHT22;41758;51.992;5.890;2023-11-22T11:21:35;11.50;71.00
55828;DHT22;41758;51.992;5.890;2023-11-22T11:24:01;11.50;71.10
55828;DHT22;41758;51.992;5.890;2023-11-22T11:26:28;11.60;71.20
55828;DHT22;41758;51.992;5.890;2023-11-22T11:28:54;11.60;71.30
55828;DHT22;41758;51.992;5.890;2023-11-22T11:31:23;11.60;71.30
55828;DHT22;41758;51.992;5.890;2023-11-22T11:36:31;11.80;71.50
55828;DHT22;41758;51.992;5.890;2023-11-22T11:39:02;11.90;71.60
55828;DHT22;41758;51.992;5.890;2023-11-22T11:41:34;11.90;71.70
55828;DHT22;41758;51.992;5.890;2023-11-22T11:44:03;11.90;71.40
55828;DHT22;41758;51.992;5.890;2023-11-22T11:46:30;11.90;71.20
55828;DHT22;41758;51.992;5.890;2023-11-22T11:48:56;11.90;71.00
55828;DHT22;41758;51.992;5.890;2023-11-22T11:51:24;11.90;71.00
55828;DHT22;41758;51.992;5.890;2023-11-22T11:53:50;11.90;71.10
55828;DHT22;41758;51.992;5.890;2023-11-22T11:56:16;12.00;71.10
55828;DHT22;41758;51.992;5.890;2023-11-22T11:58:44;11.90;71.20
55828;DHT22;41758;51.992;5.890;2023-11-22T12:01:13;12.00;71.20
55828;DHT22;41758;51.992;5.890;2023-11-22T12:03:39;12.00;71.40
55828;DHT22;41758;51.992;5.890;2023-11-22T12:06:06;12.00;71.30
55828;DHT22;41758;51.992;5.890;2023-11-22T12:08:32;12.00;70.90
55828;DHT22;41758;51.992;5.890;2023-11-22T12:11:02;12.00;70.90
55828;DHT22;41758;51.992;5.890;2023-11-22T12:13:30;12.00;70.90
55828;DHT22;41758;51.992;5.890;2023-11-22T12:15:57;12.00;70.90
55828;DHT22;41758;51.992;5.890;2023-11-22T12:18:23;12.00;71.00
55828;DHT22;41758;51.992;5.890;2023-11-22T12:23:23;12.00;71.30
55828;DHT22;41758;51.992;5.890;2023-11-22T12:25:50;12.10;71.70
55828;DHT22;41758;51.992;5.890;2023-11-22T12:28:18;12.20;71.40
55828;DHT22;41758;51.992;5.890;2023-11-22T12:30:44;12.20;71.70
55828;DHT22;41758;51.992;5.890;2023-11-22T12:33:11;12.30;71.80
55828;DHT22;41758;51.992;5.890;2023-11-22T12:35:42;12.40;72.10
55828;DHT22;41758;51.992;5.890;2023-11-22T12:38:10;12.60;72.40
55828;DHT22;41758;51.992;5.890;2023-11-22T12:40:35;12.70;71.70
55828;DHT22;41758;51.992;5.890;2023-11-22T12:43:02;12.80;71.40
55828;DHT22;41758;51.992;5.890;2023-11-22T12:45:30;12.80;71.30
55828;DHT22;41758;51.992;5.890;2023-11-22T12:47:56;12.80;71.20
55828;DHT22;41758;51.992;5.890;2023-11-22T12:53:20;12.80;70.10
55828;DHT22;41758;51.992;5.890;2023-11-22T12:55:51;12.80;70.80
55828;DHT22;41758;51.992;5.890;2023-11-22T12:58:21;12.80;71.00
55828;DHT22;41758;51.992;5.890;2023-11-22T13:00:49;12.90;71.30
55828;DHT22;41758;51.992;5.890;2023-11-22T13:03:15;12.90;69.40
55828;DHT22;41758;51.992;5.890;2023-11-22T13:05:43;12.80;69.60
55828;DHT22;41758;51.992;5.890;2023-11-22T13:08:10;12.80;69.80
55828;DHT22;41758;51.992;5.890;2023-11-22T13:10:40;12.70;69.90
55828;DHT22;41758;51.992;5.890;2023-11-22T13:13:08;12.60;70.10
55828;DHT22;41758;51.992;5.890;2023-11-22T13:15:38;12.60;70.10
55828;DHT22;41758;51.992;5.890;2023-11-22T13:18:06;12.50;69.80
55828;DHT22;41758;51.992;5.890;2023-11-22T13:20:32;12.50;69.70
55828;DHT22;41758;51.992;5.890;2023-11-22T13:22:58;12.40;69.00
55828;DHT22;41758;51.992;5.890;2023-11-22T13:25:25;12.30;68.70
55828;DHT22;41758;51.992;5.890;2023-11-22T13:27:52;12.10;69.30
55828;DHT22;41758;51.992;5.890;2023-11-22T13:30:19;12.00;69.20
55828;DHT22;41758;51.992;5.890;2023-11-22T13:32:57;11.90;68.80
55828;DHT22;41758;51.992;5.890;2023-11-22T13:35:26;11.90;69.30
55828;DHT22;41758;51.992;5.890;2023-11-22T13:38:00;11.80;68.70
55828;DHT22;41758;51.992;5.890;2023-11-22T13:40:28;11.70;68.80
55828;DHT22;41758;51.992;5.890;2023-11-22T13:42:56;11.60;69.30
55828;DHT22;41758;51.992;5.890;2023-11-22T13:45:23;11.60;69.40
55828;DHT22;41758;51.992;5.890;2023-11-22T13:47:50;11.50;69.40
55828;DHT22;41758;51.992;5.890;2023-11-22T13:50:17;11.40;69.70
55828;DHT22;41758;51.992;5.890;2023-11-22T13:52:54;11.40;70.00
55828;DHT22;41758;51.992;5.890;2023-11-22T13:55:21;11.50;70.20
55828;DHT22;41758;51.992;5.890;2023-11-22T13:57:51;11.50;70.40
55828;DHT22;41758;51.992;5.890;2023-11-22T14:00:18;11.50;70.20
55828;DHT22;41758;51.992;5.890;2023-11-22T14:02:48;11.50;70.10
55828;DHT22;41758;51.992;5.890;2023-11-22T14:05:14;11.50;70.30
55828;DHT22;41758;51.992;5.890;2023-11-22T14:07:41;11.50;70.20
55828;DHT22;41758;51.992;5.890;2023-11-22T14:10:08;11.40;70.30
55828;DHT22;41758;51.992;5.890;2023-11-22T14:12:36;11.50;70.10
55828;DHT22;41758;51.992;5.890;2023-11-22T14:15:03;11.40;69.80
55828;DHT22;41758;51.992;5.890;2023-11-22T14:17:31;11.40;69.30
55828;DHT22;41758;51.992;5.890;2023-11-22T14:19:57;11.30;69.70
55828;DHT22;41758;51.992;5.890;2023-11-22T14:22:23;11.20;69.90
55828;DHT22;41758;51.992;5.890;2023-11-22T14:24:50;11.30;70.30
55828;DHT22;41758;51.992;5.890;2023-11-22T14:27:16;11.30;70.30
55828;DHT22;41758;51.992;5.890;2023-11-22T14:29:43;11.30;70.30
55828;DHT22;41758;51.992;5.890;2023-11-22T14:32:10;11.30;70.00
55828;DHT22;41758;51.992;5.890;2023-11-22T14:34:36;11.20;70.00
55828;DHT22;41758;51.992;5.890;2023-11-22T14:37:04;11.20;70.30
55828;DHT22;41758;51.992;5.890;2023-11-22T14:39:30;11.20;70.50
55828;DHT22;41758;51.992;5.890;2023-11-22T14:41:56;11.30;70.60
55828;DHT22;41758;51.992;5.890;2023-11-22T14:44:22;11.30;70.70
55828;DHT22;41758;51.992;5.890;2023-11-22T14:46:47;11.30;70.70
55828;DHT22;41758;51.992;5.890;2023-11-22T14:49:14;11.30;70.40
55828;DHT22;41758;51.992;5.890;2023-11-22T14:51:40;11.30;70.40
55828;DHT22;41758;51.992;5.890;2023-11-22T14:54:06;11.20;70.50
55828;DHT22;41758;51.992;5.890;2023-11-22T14:56:32;11.30;70.60
55828;DHT22;41758;51.992;5.890;2023-11-22T14:58:59;11.30;70.60
55828;DHT22;41758;51.992;5.890;2023-11-22T15:01:25;11.30;70.50
55828;DHT22;41758;51.992;5.890;2023-11-22T15:03:51;11.30;70.60
55828;DHT22;41758;51.992;5.890;2023-11-22T15:06:20;11.30;70.70
55828;DHT22;41758;51.992;5.890;2023-11-22T15:08:46;11.30;70.70
55828;DHT22;41758;51.992;5.890;2023-11-22T15:11:13;11.30;70.80
55828;DHT22;41758;51.992;5.890;2023-11-22T15:13:41;11.30;70.60
55828;DHT22;41758;51.992;5.890;2023-11-22T15:16:07;11.30;70.60
55828;DHT22;41758;51.992;5.890;2023-11-22T15:18:33;11.30;70.70
55828;DHT22;41758;51.992;5.890;2023-11-22T15:20:58;11.30;70.50
55828;DHT22;41758;51.992;5.890;2023-11-22T15:23:24;11.20;70.40
55828;DHT22;41758;51.992;5.890;2023-11-22T15:25:50;11.20;70.40
55828;DHT22;41758;51.992;5.890;2023-11-22T15:28:16;11.20;70.10
55828;DHT22;41758;51.992;5.890;2023-11-22T15:30:48;11.10;70.10
55828;DHT22;41758;51.992;5.890;2023-11-22T15:33:15;11.00;70.30
55828;DHT22;41758;51.992;5.890;2023-11-22T15:35:41;11.00;70.20
55828;DHT22;41758;51.992;5.890;2023-11-22T15:38:07;10.90;69.90
55828;DHT22;41758;51.992;5.890;2023-11-22T15:40:33;10.80;70.20
55828;DHT22;41758;51.992;5.890;2023-11-22T15:42:58;10.80;70.00
55828;DHT22;41758;51.992;5.890;2023-11-22T15:45:24;10.70;70.30
55828;DHT22;41758;51.992;5.890;2023-11-22T15:47:50;10.70;70.50
55828;DHT22;41758;51.992;5.890;2023-11-22T15:50:15;10.70;70.50